Time;durP1;ratioP1;P1;durP2;ratioP2;P2;SDS_P1;SDS_P2;PMS_P1;PMS_P2;Temp;Humidity;BMP_temperature;BMP_pressure;BME280_temperature;BME280_humidity;BME280_pressure;Samples;Min_cycle;Max_cycle;Signal;HPM_P1;HPM_P2
2021/06/20 00:00:31;;;;;;;8.30;5.25;;;;;;;19.11;95.60;92747.28;2108221;28;20028;-86
2021/06/20 00:01:33;;;;;;;9.18;4.88;;;;;;;19.06;96.25;92748.00;2101105;28;20111;-87
2021/06/20 00:02:35;;;;;;;9.65;5.18;;;;;;;19.02;96.13;92750.91;2089230;28;20028;-88
2021/06/20 00:03:36;;;;;;;6.45;5.47;;;;;;;19.06;95.75;92743.31;2097216;28;20020;-85
2021/06/20 00:04:36;;;;;;;5.85;5.05;;;;;;;19.05;95.83;92749.97;2101765;28;20051;-85
2021/06/20 00:05:45;;;;;;;7.00;4.95;;;;;;;19.03;95.46;92746.97;2096696;28;20075;-87
2021/06/20 00:06:50;;;;;;;8.10;5.07;;;;;;;19.07;95.04;92744.78;2104440;28;20043;-87
2021/06/20 00:07:52;;;;;;;6.72;4.65;;;;;;;19.11;94.59;92744.56;2105371;28;20965;-87
2021/06/20 00:08:57;;;;;;;5.93;5.18;;;;;;;19.11;94.10;92753.44;2101090;28;20040;-86
2021/06/20 00:09:58;;;;;;;6.38;5.30;;;;;;;19.06;94.94;92748.72;2092883;28;20060;-86
2021/06/20 00:10:59;;;;;;;7.30;4.95;;;;;;;19.01;95.30;92760.25;2097049;28;20051;-85
2021/06/20 00:11:59;;;;;;;13.02;5.50;;;;;;;19.15;91.08;92750.53;2096803;28;20028;-86
2021/06/20 00:13:01;;;;;;;23.92;6.32;;;;;;;20.06;77.78;92739.84;2105120;28;20364;-88
2021/06/20 00:14:03;;;;;;;18.02;5.63;;;;;;;20.00;80.01;92743.75;2104789;28;20020;-87
2021/06/20 00:15:08;;;;;;;16.63;5.43;;;;;;;19.96;80.59;92740.53;2093401;28;20496;-88
2021/06/20 00:16:09;;;;;;;23.13;5.90;;;;;;;19.87;81.28;92739.50;2097570;28;20028;-85
2021/06/20 00:17:10;;;;;;;21.15;6.07;;;;;;;20.01;79.11;92734.38;2088583;28;20460;-86
2021/06/20 00:18:10;;;;;;;16.23;5.65;;;;;;;19.97;80.09;92736.56;2096522;28;20060;-85
2021/06/20 00:19:11;;;;;;;17.10;5.95;;;;;;;19.86;81.27;92735.28;2095262;28;20036;-88
2021/06/20 00:20:15;;;;;;;14.65;5.15;;;;;;;19.87;80.85;92733.31;2098536;28;20036;-87
2021/06/20 00:21:16;;;;;;;14.20;5.63;;;;;;;19.81;80.98;92730.59;2097318;28;20543;-86
2021/06/20 00:22:16;;;;;;;16.08;5.65;;;;;;;19.79;82.00;92735.75;2096910;28;20028;-86
2021/06/20 00:23:17;;;;;;;19.35;5.65;;;;;;;19.71;81.70;92732.00;2098976;28;20423;-87
2021/06/20 00:24:18;;;;;;;22.95;5.40;;;;;;;19.75;80.72;92732.50;2094741;28;20056;-87
2021/06/20 00:25:19;;;;;;;19.42;5.50;;;;;;;20.02;77.61;92738.59;2096331;28;20052;-86
2021/06/20 00:26:20;;;;;;;24.83;6.68;;;;;;;19.99;80.42;92732.16;2105193;28;20032;-86
2021/06/20 00:27:21;;;;;;;22.55;6.00;;;;;;;19.95;80.00;92741.75;2105207;28;20039;-85
2021/06/20 00:28:23;;;;;;;20.52;5.97;;;;;;;19.91;80.82;92738.53;2099359;28;20023;-86
2021/06/20 00:29:23;;;;;;;17.75;6.38;;;;;;;19.94;79.39;92730.16;2100988;28;20494;-86
2021/06/20 00:30:28;;;;;;;17.05;5.45;;;;;;;19.94;79.02;92729.44;2102713;28;20024;-86
2021/06/20 00:31:28;;;;;;;17.13;5.57;;;;;;;19.99;78.33;92731.44;2097345;28;20455;-85
2021/06/20 00:32:29;;;;;;;21.63;5.88;;;;;;;20.04;77.89;92731.44;2096768;28;20047;-87
2021/06/20 00:33:30;;;;;;;15.05;5.47;;;;;;;20.15;76.25;92732.72;2105089;28;20032;-86
2021/06/20 00:34:30;;;;;;;18.00;5.32;;;;;;;20.27;76.40;92735.00;2104722;28;20470;-86
2021/06/20 00:35:31;;;;;;;24.02;6.13;;;;;;;20.26;75.97;92738.22;2102202;28;20036;-86
2021/06/20 00:36:32;;;;;;;25.25;6.60;;;;;;;20.31;75.78;92732.06;2101222;28;20024;-87
2021/06/20 00:37:33;;;;;;;20.05;6.03;;;;;;;20.37;76.00;92728.16;2095374;28;20031;-86
2021/06/20 00:38:34;;;;;;;16.88;5.22;;;;;;;20.30;76.17;92733.28;2096755;28;20048;-86
2021/06/20 00:39:35;;;;;;;19.50;5.78;;;;;;;20.26;77.38;92730.06;2103878;28;20020;-86
2021/06/20 00:40:35;;;;;;;20.48;5.47;;;;;;;20.44;74.64;92737.78;2105282;28;20028;-85
2021/06/20 00:41:37;;;;;;;24.67;6.28;;;;;;;20.44;74.70;92754.06;2105081;28;20062;-87
2021/06/20 00:42:38;;;;;;;25.95;5.65;;;;;;;20.79;72.56;92750.28;2101158;28;20312;-86
2021/06/20 00:43:39;;;;;;;24.45;5.18;;;;;;;20.82;72.91;92752.00;2100855;28;20433;-86
2021/06/20 00:44:47;;;;;;;18.13;5.85;;;;;;;20.77;73.50;92755.47;2096267;28;20090;-86
2021/06/20 00:45:48;;;;;;;20.85;6.35;;;;;;;20.59;75.09;92749.25;2093059;28;20071;-86
2021/06/20 00:46:49;;;;;;;19.90;5.10;;;;;;;20.49;74.95;92750.66;2101824;28;20024;-85
2021/06/20 00:47:53;;;;;;;20.10;5.55;;;;;;;20.45;75.36;92749.38;2110385;28;20055;-85
2021/06/20 00:48:54;;;;;;;12.30;4.88;;;;;;;20.36;76.59;92740.22;2113546;28;20377;-86
2021/06/20 00:49:55;;;;;;;20.27;5.70;;;;;;;20.36;75.98;92744.91;2096711;28;20027;-88
2021/06/20 00:50:56;;;;;;;19.52;5.88;;;;;;;20.34;75.94;92750.84;2105031;28;20094;-87
2021/06/20 00:51:56;;;;;;;17.33;5.72;;;;;;;20.30;75.99;92752.28;2114348;28;20015;-87
2021/06/20 00:52:59;;;;;;;19.85;5.68;;;;;;;20.23;76.41;92747.31;2113431;28;20031;-87
2021/06/20 00:54:00;;;;;;;20.00;5.50;;;;;;;20.21;76.26;92742.38;2104888;28;20545;-87
2021/06/20 00:55:02;;;;;;;17.77;5.55;;;;;;;20.23;76.34;92755.47;2094804;28;20062;-85
2021/06/20 00:56:03;;;;;;;21.77;5.43;;;;;;;20.25;75.72;92766.59;2097001;28;20614;-86
2021/06/20 00:57:05;;;;;;;15.88;4.82;;;;;;;20.43;73.83;92752.59;2096252;28;20028;-86
2021/06/20 00:58:08;;;;;;;19.30;5.47;;;;;;;20.51;74.14;92759.06;2097101;28;20024;-87
2021/06/20 00:59:08;;;;;;;14.75;5.35;;;;;;;20.49;73.94;92752.63;2096840;28;20028;-87
2021/06/20 01:00:11;;;;;;;20.55;5.85;;;;;;;20.45;74.75;92752.84;2096302;28;20028;-87
2021/06/20 01:01:12;;;;;;;17.15;5.32;;;;;;;20.36;75.36;92761.94;2096736;28;20501;-86
2021/06/20 01:02:13;;;;;;;27.02;5.80;;;;;;;20.28;75.32;92763.66;2096245;28;20024;-88
2021/06/20 01:03:15;;;;;;;16.00;5.50;;;;;;;20.42;73.64;92755.81;2092872;28;20035;-87
2021/06/20 01:04:16;;;;;;;20.23;5.57;;;;;;;20.49;73.05;92760.78;2096522;28;20481;-85
2021/06/20 01:05:16;;;;;;;21.33;5.70;;;;;;;20.66;72.34;92764.31;2086557;28;20621;-86
2021/06/20 01:06:17;;;;;;;19.67;4.75;;;;;;;20.60;73.13;92758.88;2096283;28;20455;-88
2021/06/20 01:07:20;;;;;;;17.33;5.43;;;;;;;20.43;73.42;92766.19;2096411;28;20047;-86
2021/06/20 01:08:21;;;;;;;19.30;5.25;;;;;;;20.58;72.33;92780.31;2092715;28;20064;-87
2021/06/20 01:09:22;;;;;;;19.00;4.80;;;;;;;20.58;72.70;92772.16;2096309;28;20032;-87
2021/06/20 01:10:26;;;;;;;15.60;4.63;;;;;;;20.59;72.91;92776.41;2096158;28;20082;-86
2021/06/20 01:11:27;;;;;;;21.30;6.13;;;;;;;20.46;73.69;92778.03;2104951;28;20669;-86
2021/06/20 01:12:28;;;;;;;16.38;5.32;;;;;;;20.43;73.41;92771.59;2110387;28;20016;-87
2021/06/20 01:13:28;;;;;;;16.80;4.72;;;;;;;20.47;72.80;92765.94;2104652;28;20032;-87
2021/06/20 01:14:29;;;;;;;16.40;5.65;;;;;;;20.41;73.37;92768.63;2088000;28;20200;-87
2021/06/20 01:15:30;;;;;;;17.85;4.85;;;;;;;20.36;73.20;92761.94;2096561;28;20743;-88
2021/06/20 01:16:31;;;;;;;24.48;6.10;;;;;;;20.40;72.52;92760.97;2104591;28;20051;-87
2021/06/20 01:17:32;;;;;;;19.08;5.13;;;;;;;20.32;73.56;92742.41;2096242;28;20031;-86
2021/06/20 01:18:32;;;;;;;19.05;4.88;;;;;;;20.29;74.05;92751.56;2096446;28;20397;-86
2021/06/20 01:19:40;;;;;;;17.52;5.95;;;;;;;20.20;73.98;92757.19;2096191;28;20033;-87
2021/06/20 01:20:42;;;;;;;22.67;5.10;;;;;;;20.18;73.63;92750.75;2113207;28;20477;-86
2021/06/20 01:21:43;;;;;;;17.67;5.15;;;;;;;20.20;73.46;92756.44;2109263;28;20039;-87
2021/06/20 01:22:47;;;;;;;14.90;5.40;;;;;;;20.17;73.58;92752.00;2108955;28;20027;-85
2021/06/20 01:23:47;;;;;;;20.23;5.30;;;;;;;20.16;73.47;92753.22;2101192;28;20039;-87
2021/06/20 01:24:56;;;;;;;19.45;5.10;;;;;;;20.09;73.57;92757.84;2096133;28;20494;-86
2021/06/20 01:25:59;;;;;;;21.20;4.70;;;;;;;20.12;72.33;92758.88;2102193;28;20453;-85
2021/06/20 01:27:00;;;;;;;16.10;4.45;;;;;;;20.11;73.48;92760.09;2095549;28;20121;-86
2021/06/20 01:28:09;;;;;;;16.65;4.35;;;;;;;20.22;71.73;92762.88;2104890;28;20039;-86
2021/06/20 01:29:13;;;;;;;15.95;4.32;;;;;;;20.23;72.83;92763.59;2105937;28;20438;-87
2021/06/20 01:30:19;;;;;;;15.05;4.18;;;;;;;20.16;72.10;92753.22;2101187;28;20032;-86
2021/06/20 01:31:19;;;;;;;16.30;4.25;;;;;;;20.09;72.99;92760.56;2096953;28;20078;-87
2021/06/20 01:32:20;;;;;;;14.73;4.35;;;;;;;20.00;73.11;92760.78;2096348;28;20146;-86
2021/06/20 01:33:21;;;;;;;17.15;4.55;;;;;;;20.02;72.98;92765.72;2091874;28;20110;-86
2021/06/20 01:34:23;;;;;;;15.13;4.10;;;;;;;20.00;72.45;92765.47;2086531;28;20029;-87
2021/06/20 01:35:24;;;;;;;12.25;3.95;;;;;;;20.01;71.68;92769.66;2088002;28;20020;-87
2021/06/20 01:36:24;;;;;;;12.52;4.10;;;;;;;20.10;71.33;92764.03;2095843;28;20025;-85
2021/06/20 01:37:26;;;;;;;13.02;3.88;;;;;;;20.11;72.50;92776.38;2104370;28;20112;-87
2021/06/20 01:38:26;;;;;;;11.18;4.00;;;;;;;20.11;71.77;92776.38;2100394;28;20026;-86
2021/06/20 01:39:27;;;;;;;14.40;4.22;;;;;;;20.13;70.96;92773.91;2096154;28;20059;-87
2021/06/20 01:40:29;;;;;;;13.35;3.78;;;;;;;20.01;72.27;92773.09;2096169;28;20048;-85
2021/06/20 01:41:31;;;;;;;18.17;4.38;;;;;;;19.98;72.28;92779.53;2092729;28;20055;-85
2021/06/20 01:42:32;;;;;;;14.82;3.95;;;;;;;19.95;72.66;92788.63;2100522;28;20021;-85
2021/06/20 01:43:32;;;;;;;14.60;3.78;;;;;;;19.93;72.62;92793.81;2100316;28;20158;-86
2021/06/20 01:44:49;;;;;;;12.77;3.60;;;;;;;19.92;71.92;92792.28;2096023;28;20032;-86
2021/06/20 01:45:50;;;;;;;9.15;3.67;;;;;;;19.88;72.90;92797.19;2096723;28;20029;-87
2021/06/20 01:46:50;;;;;;;12.30;3.63;;;;;;;19.85;73.09;92798.19;2096380;28;20040;-85
2021/06/20 01:47:54;;;;;;;13.30;3.33;;;;;;;19.80;71.65;92801.59;2111677;28;20035;-87
2021/06/20 01:48:55;;;;;;;12.15;3.45;;;;;;;19.80;72.20;92807.03;2107793;28;20431;-86
2021/06/20 01:49:59;;;;;;;10.55;3.97;;;;;;;19.79;72.14;92808.97;2104606;28;20052;-87
2021/06/20 01:51:00;;;;;;;12.18;3.38;;;;;;;19.77;73.10;92811.44;2096888;28;20050;-86
2021/06/20 01:52:00;;;;;;;11.43;3.65;;;;;;;19.73;74.16;92810.16;2096193;28;20074;-86
2021/06/20 01:53:10;;;;;;;12.85;3.40;;;;;;;19.77;72.63;92819.56;2096284;28;20370;-87
2021/06/20 01:54:12;;;;;;;12.13;3.40;;;;;;;19.80;71.06;92809.75;2087464;28;20509;-87
2021/06/20 01:55:15;;;;;;;8.80;3.25;;;;;;;19.83;72.47;92800.63;2092198;28;20037;-85
2021/06/20 01:56:16;;;;;;;15.20;3.35;;;;;;;19.83;72.92;92792.47;2100383;28;20031;-85
2021/06/20 01:57:36;;;;;;;9.10;2.65;;;;;;;20.16;68.78;92793.94;2102220;28;20031;-85
2021/06/20 01:58:37;;;;;;;10.05;2.90;;;;;;;20.27;69.08;92788.53;2104788;28;20020;-88
2021/06/20 01:59:38;;;;;;;8.13;2.90;;;;;;;20.22;69.34;92787.28;2096411;28;20463;-87
2021/06/20 02:00:41;;;;;;;8.80;2.50;;;;;;;20.10;72.40;92783.75;2096237;28;20021;-86
2021/06/20 02:01:41;;;;;;;9.52;2.65;;;;;;;20.07;71.50;92787.47;2104924;28;20035;-86
2021/06/20 02:02:44;;;;;;;7.70;2.55;;;;;;;20.03;71.57;92794.34;2104654;28;20063;-85
2021/06/20 02:03:44;;;;;;;6.80;2.80;;;;;;;20.04;71.64;92788.44;2096528;28;20025;-87
2021/06/20 02:05:52;;;;;;;10.38;2.83;;;;;;;19.96;72.78;92779.25;2143496;27;20122;-86
2021/06/20 02:06:53;;;;;;;10.40;2.70;;;;;;;19.86;72.14;92775.97;2129840;27;20046;-86
2021/06/20 02:07:54;;;;;;;11.77;3.05;;;;;;;19.92;71.43;92781.44;2121621;27;20330;-84
2021/06/20 02:08:54;;;;;;;10.70;3.47;;;;;;;19.90;72.87;92783.16;2120196;28;20031;-84
2021/06/20 02:09:56;;;;;;;8.10;2.22;;;;;;;19.81;73.10;92784.09;2111839;28;20055;-85
2021/06/20 02:10:56;;;;;;;10.38;2.65;;;;;;;19.88;72.10;92792.50;2112195;28;20059;-85
2021/06/20 02:11:57;;;;;;;11.23;3.05;;;;;;;19.78;73.19;92791.22;2115420;28;20019;-86
2021/06/20 02:12:58;;;;;;;12.57;3.30;;;;;;;19.77;72.52;92811.44;2115407;28;20119;-86
2021/06/20 02:13:59;;;;;;;9.80;2.97;;;;;;;19.79;72.38;92800.09;2103575;28;20036;-85
2021/06/20 02:15:00;;;;;;;15.32;3.47;;;;;;;19.83;72.02;92811.47;2103530;28;20050;-85
2021/06/20 02:16:02;;;;;;;12.40;2.67;;;;;;;19.78;73.44;92795.91;2116053;28;20023;-84
2021/06/20 02:17:21;;;;;;;7.30;3.00;;;;;;;19.94;70.97;92813.53;2112090;28;20031;-84
2021/06/20 02:18:21;;;;;;;12.90;3.05;;;;;;;20.02;70.77;92806.44;2117148;27;20020;-85
2021/06/20 02:19:22;;;;;;;9.52;3.10;;;;;;;19.95;71.57;92817.72;2116172;28;20032;-87
2021/06/20 02:20:23;;;;;;;12.32;3.40;;;;;;;19.86;72.05;92811.25;2120223;28;20034;-86
2021/06/20 02:21:24;;;;;;;7.97;3.00;;;;;;;19.81;72.25;92811.22;2128875;27;20053;-86
2021/06/20 02:22:26;;;;;;;10.48;3.53;;;;;;;19.78;72.71;92807.50;2120237;28;20026;-85
2021/06/20 02:23:27;;;;;;;9.57;3.22;;;;;;;19.80;71.56;92807.03;2112392;27;20102;-85
2021/06/20 02:24:28;;;;;;;10.18;3.50;;;;;;;19.79;72.03;92814.41;2120026;27;20034;-86
2021/06/20 02:25:29;;;;;;;10.15;2.58;;;;;;;19.78;72.28;92817.59;2119699;28;20027;-87
2021/06/20 02:26:30;;;;;;;9.60;3.35;;;;;;;19.74;73.02;92819.78;2103088;28;20020;-84
2021/06/20 02:27:30;;;;;;;11.68;3.92;;;;;;;19.73;73.66;92815.59;2111493;28;20102;-86
2021/06/20 02:28:31;;;;;;;13.48;2.63;;;;;;;19.74;71.97;92819.78;2119869;28;20502;-85
2021/06/20 02:29:32;;;;;;;12.32;2.90;;;;;;;19.81;70.83;92811.97;2128723;27;20030;-86
2021/06/20 02:30:33;;;;;;;10.45;2.63;;;;;;;19.86;71.23;92808.53;2115871;28;20080;-86
2021/06/20 02:31:33;;;;;;;10.73;2.65;;;;;;;19.82;72.32;92809.97;2111577;28;20084;-85
2021/06/20 02:32:35;;;;;;;12.10;2.53;;;;;;;19.72;72.54;92811.41;2111718;28;20046;-85
2021/06/20 02:33:36;;;;;;;13.00;2.65;;;;;;;19.77;71.88;92816.13;2111001;27;20593;-85
2021/06/20 02:34:39;;;;;;;8.23;2.70;;;;;;;19.73;71.29;92810.16;2110752;28;20108;-85
2021/06/20 02:35:39;;;;;;;10.85;2.70;;;;;;;19.78;70.87;92814.88;2111141;28;20115;-85
2021/06/20 02:36:40;;;;;;;8.88;2.65;;;;;;;19.73;69.61;92818.31;2111589;28;20024;-84
2021/06/20 02:37:45;;;;;;;7.72;2.08;;;;;;;19.75;69.72;92822.00;2124182;27;20141;-85
2021/06/20 02:38:46;;;;;;;8.48;2.20;;;;;;;19.81;68.09;92809.25;2128685;27;20027;-85
2021/06/20 02:39:47;;;;;;;11.90;2.63;;;;;;;19.72;69.82;92808.69;2120027;28;20055;-84
2021/06/20 02:40:48;;;;;;;5.88;1.77;;;;;;;19.57;70.79;92804.09;2120063;27;20019;-86
2021/06/20 02:41:50;;;;;;;9.27;2.40;;;;;;;19.56;68.67;92810.75;2120039;28;20396;-84
2021/06/20 02:42:51;;;;;;;6.45;1.75;;;;;;;19.52;69.80;92810.22;2120419;27;20026;-85
2021/06/20 02:43:51;;;;;;;8.25;2.15;;;;;;;19.40;70.20;92811.34;2128325;27;20500;-85
2021/06/20 02:44:53;;;;;;;4.80;1.70;;;;;;;19.46;68.54;92816.81;2128146;27;20160;-85
2021/06/20 02:45:53;;;;;;;6.03;1.92;;;;;;;19.44;69.17;92822.72;2128467;27;20035;-85
2021/06/20 02:46:57;;;;;;;5.20;1.70;;;;;;;19.48;67.84;92836.78;2119901;28;20023;-84
2021/06/20 02:47:58;;;;;;;5.15;1.50;;;;;;;19.45;67.13;92839.72;2120369;27;20515;-85
2021/06/20 02:48:59;;;;;;;6.63;1.95;;;;;;;19.53;65.86;92836.09;2120840;27;20031;-85
2021/06/20 02:50:00;;;;;;;6.38;2.25;;;;;;;19.39;67.79;92834.25;2120314;27;20050;-85
2021/06/20 02:51:00;;;;;;;5.78;1.67;;;;;;;19.47;66.86;92829.16;2119971;27;20035;-84
2021/06/20 02:52:03;;;;;;;7.45;2.15;;;;;;;19.50;66.88;92839.03;2128605;27;20468;-85
2021/06/20 02:53:04;;;;;;;8.00;1.45;;;;;;;19.50;65.49;92837.06;2115832;28;20015;-86
2021/06/20 02:54:04;;;;;;;7.20;1.98;;;;;;;19.52;66.50;92823.03;2111724;28;20369;-83
2021/06/20 02:55:06;;;;;;;3.58;1.20;;;;;;;19.51;66.29;92822.28;2119865;28;20039;-85
2021/06/20 02:56:06;;;;;;;6.40;1.60;;;;;;;19.46;65.85;92822.25;2120311;28;20523;-85
2021/06/20 02:57:07;;;;;;;4.28;1.35;;;;;;;19.36;67.13;92827.09;2111286;28;20081;-85
2021/06/20 02:58:08;;;;;;;6.25;1.80;;;;;;;19.36;67.84;92827.09;2103230;28;20032;-85
2021/06/20 02:59:09;;;;;;;6.32;1.40;;;;;;;19.38;66.64;92827.34;2116150;28;20035;-84
2021/06/20 03:00:10;;;;;;;5.57;1.60;;;;;;;19.38;66.61;92835.47;2128222;27;20391;-84
2021/06/20 03:01:10;;;;;;;3.75;1.63;;;;;;;19.42;65.93;92832.56;2120153;27;20426;-84
2021/06/20 03:02:11;;;;;;;4.07;1.30;;;;;;;19.32;67.63;92835.44;2105541;28;20028;-86
2021/06/20 03:03:12;;;;;;;6.32;1.50;;;;;;;19.47;65.26;92838.03;2101803;28;20516;-85
2021/06/20 03:04:13;;;;;;;4.40;1.52;;;;;;;19.42;65.31;92835.28;2108384;28;20079;-84
2021/06/20 03:05:13;;;;;;;6.10;1.48;;;;;;;19.37;66.88;92828.56;2118480;27;20474;-84
2021/06/20 03:06:15;;;;;;;3.58;1.27;;;;;;;19.31;66.59;92828.50;2119788;28;20023;-85
2021/06/20 03:07:15;;;;;;;3.85;1.30;;;;;;;19.47;65.08;92824.47;2106244;28;20030;-84
2021/06/20 03:08:16;;;;;;;4.78;1.48;;;;;;;19.45;67.08;92831.59;2111622;28;20031;-84
2021/06/20 03:09:17;;;;;;;4.80;1.70;;;;;;;19.40;65.92;92827.59;2111097;28;20416;-83
2021/06/20 03:10:18;;;;;;;8.38;2.22;;;;;;;19.31;67.92;92835.91;2111277;28;20396;-86
2021/06/20 03:11:19;;;;;;;8.52;2.30;;;;;;;19.37;66.09;92832.03;2107419;28;20069;-84
2021/06/20 03:12:20;;;;;;;8.07;1.67;;;;;;;19.28;67.69;92829.47;2103177;28;20834;-86
2021/06/20 03:13:21;;;;;;;6.70;2.13;;;;;;;19.27;66.75;92838.06;2111397;28;20084;-85
2021/06/20 03:14:21;;;;;;;5.55;1.75;;;;;;;19.29;66.74;92833.69;2111492;28;20102;-85
2021/06/20 03:15:22;;;;;;;6.40;1.83;;;;;;;19.23;68.28;92835.59;2111293;28;20236;-85
2021/06/20 03:16:23;;;;;;;5.65;1.90;;;;;;;19.20;66.97;92830.38;2102594;28;20748;-85
2021/06/20 03:17:24;;;;;;;6.40;1.90;;;;;;;19.09;68.29;92828.28;2095245;28;20029;-85
2021/06/20 03:18:24;;;;;;;5.05;1.50;;;;;;;19.09;66.57;92826.31;2105644;28;20118;-84
2021/06/20 03:19:25;;;;;;;8.30;1.92;;;;;;;19.09;67.11;92828.28;2105825;28;20028;-85
2021/06/20 03:20:26;;;;;;;5.75;1.42;;;;;;;19.16;66.78;92829.84;2104496;28;20020;-85
2021/06/20 03:21:27;;;;;;;5.75;1.55;;;;;;;19.28;65.50;92834.16;2105509;28;20027;-84
2021/06/20 03:22:27;;;;;;;5.13;1.55;;;;;;;19.29;64.46;92825.53;2102707;28;20490;-84
2021/06/20 03:23:28;;;;;;;5.07;1.67;;;;;;;19.26;65.46;92836.59;2093137;28;20040;-85
2021/06/20 03:24:31;;;;;;;4.00;1.55;;;;;;;19.25;66.09;92821.56;2104940;28;20028;-85
2021/06/20 03:25:31;;;;;;;5.97;1.60;;;;;;;19.21;65.22;92819.06;2106063;28;20023;-85
2021/06/20 03:26:33;;;;;;;4.95;1.23;;;;;;;19.21;65.63;92831.88;2105940;28;20012;-85
2021/06/20 03:27:33;;;;;;;4.05;1.40;;;;;;;19.14;65.93;92827.63;2097319;28;20201;-84
2021/06/20 03:28:34;;;;;;;5.88;1.70;;;;;;;19.06;67.04;92834.69;2101608;28;20024;-84
2021/06/20 03:29:35;;;;;;;4.28;1.50;;;;;;;19.15;64.68;92839.22;2113885;28;20024;-85
2021/06/20 03:30:36;;;;;;;4.18;1.30;;;;;;;19.11;65.97;92837.44;2105573;28;20032;-86
2021/06/20 03:31:37;;;;;;;3.55;1.30;;;;;;;19.02;66.90;92851.13;2105625;28;20024;-84
2021/06/20 03:32:37;;;;;;;5.13;1.40;;;;;;;19.00;66.75;92863.66;2085056;28;20034;-86
2021/06/20 03:33:38;;;;;;;2.80;1.15;;;;;;;18.95;67.60;92875.19;2097417;28;20031;-84
2021/06/20 03:34:39;;;;;;;4.60;1.65;;;;;;;18.94;67.75;92890.69;2113846;28;20028;-87
2021/06/20 03:35:39;;;;;;;3.78;1.52;;;;;;;18.95;68.65;92886.75;2097378;28;20020;-86
2021/06/20 03:36:40;;;;;;;5.13;1.50;;;;;;;18.93;68.83;92881.06;2105483;28;20081;-83
2021/06/20 03:37:41;;;;;;;3.80;1.55;;;;;;;18.96;67.60;92877.41;2107807;28;20084;-84
2021/06/20 03:38:45;;;;;;;5.35;1.75;;;;;;;18.89;66.65;92864.28;2092941;28;20025;-85
2021/06/20 03:39:46;;;;;;;6.80;1.60;;;;;;;18.80;68.97;92864.44;2097557;28;20477;-84
2021/06/20 03:40:47;;;;;;;4.35;1.13;;;;;;;18.78;66.07;92851.34;2103241;28;20016;-85
2021/06/20 03:41:47;;;;;;;3.92;1.27;;;;;;;18.86;65.01;92843.56;2105580;28;20125;-83
2021/06/20 03:42:48;;;;;;;2.60;1.10;;;;;;;18.92;64.78;92838.97;2105501;28;20028;-85
2021/06/20 03:43:49;;;;;;;4.68;1.30;;;;;;;18.85;66.45;92832.00;2105397;28;20028;-86
2021/06/20 03:44:50;;;;;;;4.68;1.65;;;;;;;18.84;66.34;92827.06;2105497;28;20559;-84
2021/06/20 03:45:51;;;;;;;3.78;1.20;;;;;;;18.85;65.19;92828.53;2096697;28;20024;-85
2021/06/20 03:46:52;;;;;;;5.22;1.60;;;;;;;18.98;64.05;92825.47;2097313;28;20024;-86
2021/06/20 03:47:52;;;;;;;3.53;1.20;;;;;;;18.98;64.83;92826.22;2109903;28;20024;-85
2021/06/20 03:48:53;;;;;;;5.47;1.45;;;;;;;18.96;63.97;92822.47;2105680;28;20054;-85
2021/06/20 03:49:54;;;;;;;4.93;1.42;;;;;;;19.01;63.92;92811.72;2106566;28;20032;-84
2021/06/20 03:50:55;;;;;;;2.78;0.95;;;;;;;19.00;65.99;92812.94;2105516;28;20035;-84
2021/06/20 03:51:55;;;;;;;3.50;1.30;;;;;;;18.97;63.72;92810.44;2097270;28;20028;-84
2021/06/20 03:52:56;;;;;;;2.35;1.10;;;;;;;19.03;62.95;92806.56;2097036;28;20103;-83
2021/06/20 03:53:57;;;;;;;2.80;1.10;;;;;;;19.03;64.06;92798.44;2097136;28;20052;-85
2021/06/20 03:54:58;;;;;;;5.13;1.45;;;;;;;18.95;65.05;92804.75;2100764;28;20024;-85
2021/06/20 03:55:59;;;;;;;3.00;1.20;;;;;;;18.92;65.59;92801.06;2101316;28;20106;-85
2021/06/20 03:57:00;;;;;;;3.78;1.42;;;;;;;18.96;63.60;92787.28;2105785;28;20020;-85
2021/06/20 03:58:03;;;;;;;2.75;1.10;;;;;;;18.95;63.75;92786.53;2104973;28;20361;-86
2021/06/20 03:59:04;;;;;;;2.40;1.00;;;;;;;18.87;63.69;92785.47;2097780;28;20517;-84
2021/06/20 04:00:08;;;;;;;2.95;1.13;;;;;;;18.85;64.14;92791.38;2104481;28;20031;-84
2021/06/20 04:01:09;;;;;;;2.42;1.20;;;;;;;18.95;63.16;92791.94;2117167;27;20024;-85
2021/06/20 04:02:10;;;;;;;4.10;1.10;;;;;;;18.90;64.78;92784.50;2105249;28;20038;-83
2021/06/20 04:03:10;;;;;;;2.75;1.08;;;;;;;18.77;65.21;92781.44;2105416;28;20024;-86
2021/06/20 04:04:11;;;;;;;3.47;1.30;;;;;;;18.72;64.78;92784.81;2104230;28;20056;-84
2021/06/20 04:05:14;;;;;;;1.90;0.93;;;;;;;18.67;65.93;92778.09;2105691;28;20448;-85
2021/06/20 04:06:15;;;;;;;2.92;1.00;;;;;;;18.77;64.64;92776.75;2113748;28;20519;-85
2021/06/20 04:07:16;;;;;;;1.55;0.80;;;;;;;18.76;65.03;92774.53;2096865;28;20063;-85
2021/06/20 04:08:17;;;;;;;3.00;0.85;;;;;;;18.69;65.13;92770.25;2088841;28;20549;-84
2021/06/20 04:09:18;;;;;;;1.83;0.88;;;;;;;18.72;64.73;92772.03;2088558;28;20091;-85
2021/06/20 04:10:18;;;;;;;2.05;0.98;;;;;;;18.79;63.67;92777.03;2105178;28;20043;-84
2021/06/20 04:11:20;;;;;;;1.80;0.90;;;;;;;18.77;63.72;92776.00;2113977;28;20053;-84
2021/06/20 04:12:21;;;;;;;2.75;0.80;;;;;;;18.77;64.46;92782.16;2123068;27;20026;-85
2021/06/20 04:13:21;;;;;;;2.30;0.80;;;;;;;18.75;65.41;92781.16;2105401;28;20408;-84
2021/06/20 04:14:22;;;;;;;3.42;1.08;;;;;;;18.76;63.95;92785.34;2096874;28;20024;-84
2021/06/20 04:15:23;;;;;;;5.22;1.13;;;;;;;18.77;64.13;92781.44;2105344;28;20062;-85
2021/06/20 04:16:24;;;;;;;2.97;1.08;;;;;;;18.71;63.32;92784.06;2105369;28;20439;-85
2021/06/20 04:17:28;;;;;;;3.42;1.17;;;;;;;18.74;64.14;92785.81;2109582;28;20030;-84
2021/06/20 04:18:29;;;;;;;3.40;0.95;;;;;;;18.70;64.08;92793.44;2110506;27;20062;-85
2021/06/20 04:19:29;;;;;;;3.45;0.80;;;;;;;18.83;63.18;92791.09;2105238;28;20024;-84
2021/06/20 04:20:30;;;;;;;2.53;0.70;;;;;;;18.72;65.84;92795.66;2088714;28;20041;-85
2021/06/20 04:21:31;;;;;;;2.33;0.90;;;;;;;18.71;65.24;92803.03;2096486;28;20021;-84
2021/06/20 04:22:32;;;;;;;3.03;1.35;;;;;;;18.72;66.56;92790.97;2104659;28;20034;-85
2021/06/20 04:23:32;;;;;;;3.58;0.90;;;;;;;18.59;69.02;92794.00;2108939;28;20432;-85
2021/06/20 04:24:33;;;;;;;1.83;0.80;;;;;;;18.57;67.87;92804.56;2109297;28;20026;-84
2021/06/20 04:25:34;;;;;;;4.13;0.90;;;;;;;18.56;67.88;92789.53;2109219;28;20016;-85
2021/06/20 04:26:35;;;;;;;2.13;0.95;;;;;;;18.46;67.63;92788.19;2100859;28;20032;-84
2021/06/20 04:27:36;;;;;;;3.20;0.95;;;;;;;18.46;68.50;92793.59;2093059;28;20025;-85
2021/06/20 04:28:37;;;;;;;2.38;0.60;;;;;;;18.51;66.54;92797.59;2104496;28;20024;-85
2021/06/20 04:29:37;;;;;;;2.03;0.82;;;;;;;18.42;71.01;92805.84;2105228;28;20031;-85
2021/06/20 04:30:38;;;;;;;1.63;0.80;;;;;;;18.28;69.80;92810.09;2109298;28;20035;-85
2021/06/20 04:31:39;;;;;;;1.58;0.90;;;;;;;18.33;72.04;92804.00;2109142;28;20067;-86
2021/06/20 04:32:41;;;;;;;2.95;0.95;;;;;;;18.31;70.51;92803.75;2093363;28;20025;-86
2021/06/20 04:33:42;;;;;;;4.40;1.20;;;;;;;18.22;72.38;92811.97;2088648;28;20489;-84
2021/06/20 04:34:42;;;;;;;2.03;0.90;;;;;;;18.29;70.98;92804.22;2096419;28;20013;-85
2021/06/20 04:35:43;;;;;;;2.33;1.23;;;;;;;18.24;72.66;92813.00;2100193;28;20024;-85
2021/06/20 04:36:44;;;;;;;3.60;0.90;;;;;;;18.28;70.96;92810.09;2102192;28;20385;-84
2021/06/20 04:37:45;;;;;;;1.90;0.90;;;;;;;18.17;71.42;92809.94;2103751;28;20035;-83
2021/06/20 04:38:47;;;;;;;5.15;1.33;;;;;;;18.07;73.08;92809.31;2102206;28;20049;-84
2021/06/20 04:39:48;;;;;;;2.65;0.98;;;;;;;18.10;73.45;92801.03;2097055;28;20363;-85
2021/06/20 04:40:51;;;;;;;5.70;1.27;;;;;;;18.02;73.93;92808.03;2096591;28;20508;-84
2021/06/20 04:41:52;;;;;;;3.65;1.35;;;;;;;18.01;74.95;92806.56;2089154;28;20035;-86
2021/06/20 04:43:05;;;;;;;3.38;0.70;;;;;;;17.95;74.28;92805.72;2096881;28;20067;-85
2021/06/20 04:44:42;;;;;;;2.53;0.82;;;;;;;18.04;74.06;92808.31;2106773;28;20044;-84
2021/06/20 04:45:27;;;;;;;2.03;0.93;;;;;;;17.97;76.78;92808.72;2116343;27;20023;-84
2021/06/20 04:46:29;;;;;;;1.67;0.77;;;;;;;18.06;73.31;92808.59;2105225;28;20115;-85
2021/06/20 04:47:31;;;;;;;3.30;0.80;;;;;;;18.12;73.27;92806.69;2097315;28;20488;-86
2021/06/20 04:48:32;;;;;;;3.08;1.10;;;;;;;18.06;75.84;92802.44;2105078;28;20031;-84
2021/06/20 04:49:33;;;;;;;1.92;0.90;;;;;;;18.01;76.83;92809.25;2098306;28;20029;-84